sensor_id;sensor_type;location;lat;lon;timestamp;P1;durP1;ratioP1;P2;durP2;ratioP2
72573;SDS011;60603;52.548;13.420;2023-11-21T00:00:26;25.15;;;9.18;;
72573;SDS011;60603;52.548;13.420;2023-11-21T00:03:12;21.30;;;8.88;;
72573;SDS011;60603;52.548;13.420;2023-11-21T00:05:41;22.23;;;9.80;;
72573;SDS011;60603;52.548;13.420;2023-11-21T00:36:31;35.67;;;11.85;;
72573;SDS011;60603;52.548;13.420;2023-11-21T00:38:58;29.02;;;11.80;;
72573;SDS011;60603;52.548;13.420;2023-11-21T00:41:25;30.35;;;11.90;;
72573;SDS011;60603;52.548;13.420;2023-11-21T00:43:55;30.65;;;12.25;;
72573;SDS011;60603;52.548;13.420;2023-11-21T00:46:22;35.40;;;11.82;;
72573;SDS011;60603;52.548;13.420;2023-11-21T00:48:50;28.15;;;12.25;;
72573;SDS011;60603;52.548;13.420;2023-11-21T00:51:17;38.22;;;15.38;;
72573;SDS011;60603;52.548;13.420;2023-11-21T00:53:44;33.08;;;12.75;;
72573;SDS011;60603;52.548;13.420;2023-11-21T00:56:11;38.95;;;13.50;;
72573;SDS011;60603;52.548;13.420;2023-11-21T00:58:38;45.78;;;13.38;;
72573;SDS011;60603;52.548;13.420;2023-11-21T01:01:05;41.08;;;15.40;;
72573;SDS011;60603;52.548;13.420;2023-11-21T01:03:32;43.35;;;14.35;;
72573;SDS011;60603;52.548;13.420;2023-11-21T01:05:59;43.30;;;14.93;;
72573;SDS011;60603;52.548;13.420;2023-11-21T01:08:26;46.28;;;15.93;;
72573;SDS011;60603;52.548;13.420;2023-11-21T01:10:53;43.65;;;15.02;;
72573;SDS011;60603;52.548;13.420;2023-11-21T01:13:20;49.25;;;17.20;;
72573;SDS011;60603;52.548;13.420;2023-11-21T01:15:47;52.90;;;15.85;;
72573;SDS011;60603;52.548;13.420;2023-11-21T01:18:14;51.78;;;15.93;;
72573;SDS011;60603;52.548;13.420;2023-11-21T01:20:44;53.28;;;16.98;;
72573;SDS011;60603;52.548;13.420;2023-11-21T01:23:15;56.45;;;18.27;;
72573;SDS011;60603;52.548;13.420;2023-11-21T01:25:42;46.92;;;15.73;;
72573;SDS011;60603;52.548;13.420;2023-11-21T01:28:09;54.13;;;16.77;;
72573;SDS011;60603;52.548;13.420;2023-11-21T01:30:35;48.30;;;16.92;;
72573;SDS011;60603;52.548;13.420;2023-11-21T01:33:02;39.00;;;12.90;;
72573;SDS011;60603;52.548;13.420;2023-11-21T01:35:29;42.45;;;12.75;;
72573;SDS011;60603;52.548;13.420;2023-11-21T01:37:57;50.17;;;15.48;;
72573;SDS011;60603;52.548;13.420;2023-11-21T01:40:23;42.00;;;13.30;;
72573;SDS011;60603;52.548;13.420;2023-11-21T01:42:52;37.90;;;12.50;;
72573;SDS011;60603;52.548;13.420;2023-11-21T01:45:19;40.65;;;12.38;;
72573;SDS011;60603;52.548;13.420;2023-11-21T01:47:46;34.55;;;11.45;;
72573;SDS011;60603;52.548;13.420;2023-11-21T01:50:14;31.48;;;11.52;;
72573;SDS011;60603;52.548;13.420;2023-11-21T01:52:46;33.42;;;10.73;;
72573;SDS011;60603;52.548;13.420;2023-11-21T01:55:14;36.35;;;10.40;;
72573;SDS011;60603;52.548;13.420;2023-11-21T01:57:54;33.10;;;9.60;;
72573;SDS011;60603;52.548;13.420;2023-11-21T02:00:24;20.80;;;7.82;;
72573;SDS011;60603;52.548;13.420;2023-11-21T02:02:52;28.25;;;8.93;;
72573;SDS011;60603;52.548;13.420;2023-11-21T02:05:19;27.63;;;9.35;;
72573;SDS011;60603;52.548;13.420;2023-11-21T02:07:48;23.45;;;8.80;;
72573;SDS011;60603;52.548;13.420;2023-11-21T02:10:15;26.10;;;8.70;;
72573;SDS011;60603;52.548;13.420;2023-11-21T02:12:43;19.58;;;7.82;;
72573;SDS011;60603;52.548;13.420;2023-11-21T02:15:12;20.98;;;7.55;;
72573;SDS011;60603;52.548;13.420;2023-11-21T02:17:47;19.40;;;7.70;;
72573;SDS011;60603;52.548;13.420;2023-11-21T02:20:17;20.00;;;7.43;;
72573;SDS011;60603;52.548;13.420;2023-11-21T02:22:51;19.92;;;6.97;;
72573;SDS011;60603;52.548;13.420;2023-11-21T02:25:26;18.45;;;6.28;;
72573;SDS011;60603;52.548;13.420;2023-11-21T02:27:55;18.83;;;7.68;;
72573;SDS011;60603;52.548;13.420;2023-11-21T02:30:22;19.20;;;7.43;;
72573;SDS011;60603;52.548;13.420;2023-11-21T02:32:51;17.60;;;7.32;;
72573;SDS011;60603;52.548;13.420;2023-11-21T02:35:23;18.05;;;6.72;;
72573;SDS011;60603;52.548;13.420;2023-11-21T02:37:52;17.30;;;6.93;;
72573;SDS011;60603;52.548;13.420;2023-11-21T02:40:20;16.25;;;6.72;;
72573;SDS011;60603;52.548;13.420;2023-11-21T02:42:47;20.42;;;7.85;;
72573;SDS011;60603;52.548;13.420;2023-11-21T02:45:14;15.88;;;7.00;;
72573;SDS011;60603;52.548;13.420;2023-11-21T02:47:44;18.13;;;7.35;;
72573;SDS011;60603;52.548;13.420;2023-11-21T02:50:11;18.92;;;6.75;;
72573;SDS011;60603;52.548;13.420;2023-11-21T02:52:38;17.30;;;7.22;;
72573;SDS011;60603;52.548;13.420;2023-11-21T02:55:06;18.25;;;7.63;;
72573;SDS011;60603;52.548;13.420;2023-11-21T02:57:34;16.08;;;6.95;;
72573;SDS011;60603;52.548;13.420;2023-11-21T03:00:00;19.27;;;7.82;;
72573;SDS011;60603;52.548;13.420;2023-11-21T03:02:27;15.32;;;7.32;;
72573;SDS011;60603;52.548;13.420;2023-11-21T03:04:54;15.25;;;7.13;;
72573;SDS011;60603;52.548;13.420;2023-11-21T03:07:21;17.08;;;7.70;;
72573;SDS011;60603;52.548;13.420;2023-11-21T03:09:48;20.25;;;7.70;;
72573;SDS011;60603;52.548;13.420;2023-11-21T03:12:15;13.43;;;7.07;;
72573;SDS011;60603;52.548;13.420;2023-11-21T03:14:42;15.20;;;7.07;;
72573;SDS011;60603;52.548;13.420;2023-11-21T03:17:09;11.98;;;5.82;;
72573;SDS011;60603;52.548;13.420;2023-11-21T03:19:36;12.95;;;6.43;;
72573;SDS011;60603;52.548;13.420;2023-11-21T03:22:03;15.10;;;6.82;;
72573;SDS011;60603;52.548;13.420;2023-11-21T03:24:30;12.15;;;6.95;;
72573;SDS011;60603;52.548;13.420;2023-11-21T03:26:57;11.75;;;5.22;;
72573;SDS011;60603;52.548;13.420;2023-11-21T03:29:25;12.93;;;5.43;;
72573;SDS011;60603;52.548;13.420;2023-11-21T03:31:52;12.68;;;6.72;;
72573;SDS011;60603;52.548;13.420;2023-11-21T03:34:26;12.73;;;5.70;;
72573;SDS011;60603;52.548;13.420;2023-11-21T03:36:54;12.70;;;5.88;;
72573;SDS011;60603;52.548;13.420;2023-11-21T03:39:21;11.70;;;5.15;;
72573;SDS011;60603;52.548;13.420;2023-11-21T03:41:49;12.75;;;5.72;;
72573;SDS011;60603;52.548;13.420;2023-11-21T03:44:15;11.75;;;5.47;;
72573;SDS011;60603;52.548;13.420;2023-11-21T03:46:44;9.82;;;5.10;;
72573;SDS011;60603;52.548;13.420;2023-11-21T03:49:11;11.75;;;5.88;;
72573;SDS011;60603;52.548;13.420;2023-11-21T03:51:38;11.90;;;5.45;;
72573;SDS011;60603;52.548;13.420;2023-11-21T03:54:04;12.32;;;5.43;;
72573;SDS011;60603;52.548;13.420;2023-11-21T03:56:31;11.27;;;5.10;;
72573;SDS011;60603;52.548;13.420;2023-11-21T03:58:58;13.88;;;5.95;;
72573;SDS011;60603;52.548;13.420;2023-11-21T04:01:25;11.07;;;4.07;;
72573;SDS011;60603;52.548;13.420;2023-11-21T04:03:52;13.48;;;5.75;;
72573;SDS011;60603;52.548;13.420;2023-11-21T04:06:19;11.82;;;5.00;;
72573;SDS011;60603;52.548;13.420;2023-11-21T04:08:46;12.57;;;5.50;;
72573;SDS011;60603;52.548;13.420;2023-11-21T04:11:13;10.63;;;5.13;;
72573;SDS011;60603;52.548;13.420;2023-11-21T04:13:40;10.88;;;4.75;;
72573;SDS011;60603;52.548;13.420;2023-11-21T04:16:09;8.50;;;4.10;;
72573;SDS011;60603;52.548;13.420;2023-11-21T04:18:36;10.15;;;5.13;;
72573;SDS011;60603;52.548;13.420;2023-11-21T04:21:04;8.98;;;4.47;;
72573;SDS011;60603;52.548;13.420;2023-11-21T04:23:31;11.57;;;5.00;;
72573;SDS011;60603;52.548;13.420;2023-11-21T04:25:58;11.50;;;4.78;;
72573;SDS011;60603;52.548;13.420;2023-11-21T04:28:25;12.75;;;5.20;;
72573;SDS011;60603;52.548;13.420;2023-11-21T04:30:52;11.00;;;5.38;;
72573;SDS011;60603;52.548;13.420;2023-11-21T04:33:19;11.40;;;4.97;;
72573;SDS011;60603;52.548;13.420;2023-11-21T04:35:46;9.10;;;5.20;;
72573;SDS011;60603;52.548;13.420;2023-11-21T04:38:13;12.02;;;4.97;;
72573;SDS011;60603;52.548;13.420;2023-11-21T04:40:40;9.77;;;4.28;;
72573;SDS011;60603;52.548;13.420;2023-11-21T04:43:06;11.93;;;4.82;;
72573;SDS011;60603;52.548;13.420;2023-11-21T04:45:34;10.25;;;4.72;;
72573;SDS011;60603;52.548;13.420;2023-11-21T04:48:00;12.20;;;5.35;;
72573;SDS011;60603;52.548;13.420;2023-11-21T04:50:27;11.55;;;4.97;;
72573;SDS011;60603;52.548;13.420;2023-11-21T04:52:54;11.52;;;5.55;;
72573;SDS011;60603;52.548;13.420;2023-11-21T04:55:21;11.45;;;4.70;;
72573;SDS011;60603;52.548;13.420;2023-11-21T04:57:48;13.68;;;4.55;;
72573;SDS011;60603;52.548;13.420;2023-11-21T05:00:15;9.88;;;4.82;;
72573;SDS011;60603;52.548;13.420;2023-11-21T05:02:42;9.95;;;4.78;;
72573;SDS011;60603;52.548;13.420;2023-11-21T05:05:11;9.50;;;3.92;;
72573;SDS011;60603;52.548;13.420;2023-11-21T05:07:39;10.65;;;5.10;;
72573;SDS011;60603;52.548;13.420;2023-11-21T05:10:06;10.05;;;4.40;;
72573;SDS011;60603;52.548;13.420;2023-11-21T05:12:37;9.60;;;3.80;;
72573;SDS011;60603;52.548;13.420;2023-11-21T05:15:04;11.20;;;4.90;;
72573;SDS011;60603;52.548;13.420;2023-11-21T05:17:38;9.35;;;3.58;;
72573;SDS011;60603;52.548;13.420;2023-11-21T05:20:10;9.73;;;4.35;;
72573;SDS011;60603;52.548;13.420;2023-11-21T05:22:37;11.93;;;4.78;;
72573;SDS011;60603;52.548;13.420;2023-11-21T05:25:05;10.75;;;5.07;;
72573;SDS011;60603;52.548;13.420;2023-11-21T05:27:34;10.18;;;4.63;;
72573;SDS011;60603;52.548;13.420;2023-11-21T05:30:02;11.35;;;4.88;;
72573;SDS011;60603;52.548;13.420;2023-11-21T05:32:32;11.90;;;4.65;;
72573;SDS011;60603;52.548;13.420;2023-11-21T05:34:59;11.02;;;4.80;;
72573;SDS011;60603;52.548;13.420;2023-11-21T05:37:27;10.77;;;4.95;;
72573;SDS011;60603;52.548;13.420;2023-11-21T05:39:54;10.13;;;4.70;;
72573;SDS011;60603;52.548;13.420;2023-11-21T05:42:23;9.13;;;4.82;;
72573;SDS011;60603;52.548;13.420;2023-11-21T05:44:50;13.43;;;5.90;;
72573;SDS011;60603;52.548;13.420;2023-11-21T05:47:17;11.95;;;5.18;;
72573;SDS011;60603;52.548;13.420;2023-11-21T05:49:45;12.85;;;5.15;;
72573;SDS011;60603;52.548;13.420;2023-11-21T05:52:16;10.13;;;4.65;;
72573;SDS011;60603;52.548;13.420;2023-11-21T05:54:44;12.32;;;4.95;;
72573;SDS011;60603;52.548;13.420;2023-11-21T05:57:11;12.18;;;4.88;;
72573;SDS011;60603;52.548;13.420;2023-11-21T05:59:38;12.07;;;4.35;;
72573;SDS011;60603;52.548;13.420;2023-11-21T06:02:05;8.77;;;4.40;;
72573;SDS011;60603;52.548;13.420;2023-11-21T06:04:32;8.35;;;4.30;;
72573;SDS011;60603;52.548;13.420;2023-11-21T06:06:58;9.43;;;4.28;;
72573;SDS011;60603;52.548;13.420;2023-11-21T06:09:27;8.48;;;4.13;;
72573;SDS011;60603;52.548;13.420;2023-11-21T06:11:54;8.43;;;4.43;;
72573;SDS011;60603;52.548;13.420;2023-11-21T06:14:21;8.77;;;3.45;;
72573;SDS011;60603;52.548;13.420;2023-11-21T06:16:48;7.88;;;3.53;;
72573;SDS011;60603;52.548;13.420;2023-11-21T06:19:17;10.18;;;3.53;;
72573;SDS011;60603;52.548;13.420;2023-11-21T06:21:47;8.02;;;4.00;;
72573;SDS011;60603;52.548;13.420;2023-11-21T06:24:14;8.52;;;3.22;;
72573;SDS011;60603;52.548;13.420;2023-11-21T06:26:42;8.68;;;3.85;;
72573;SDS011;60603;52.548;13.420;2023-11-21T06:29:10;6.50;;;4.03;;
72573;SDS011;60603;52.548;13.420;2023-11-21T06:31:37;9.50;;;3.65;;
72573;SDS011;60603;52.548;13.420;2023-11-21T06:34:04;8.23;;;3.55;;
72573;SDS011;60603;52.548;13.420;2023-11-21T06:36:31;7.57;;;3.63;;
72573;SDS011;60603;52.548;13.420;2023-11-21T06:39:00;7.57;;;3.95;;
72573;SDS011;60603;52.548;13.420;2023-11-21T06:41:27;5.82;;;2.75;;
72573;SDS011;60603;52.548;13.420;2023-11-21T06:43:54;7.57;;;3.47;;
72573;SDS011;60603;52.548;13.420;2023-11-21T06:46:21;8.27;;;3.60;;
72573;SDS011;60603;52.548;13.420;2023-11-21T06:48:48;8.10;;;3.53;;
72573;SDS011;60603;52.548;13.420;2023-11-21T06:51:16;8.73;;;3.42;;
72573;SDS011;60603;52.548;13.420;2023-11-21T06:53:43;8.18;;;3.83;;
72573;SDS011;60603;52.548;13.420;2023-11-21T06:56:16;7.95;;;3.67;;
72573;SDS011;60603;52.548;13.420;2023-11-21T06:58:44;10.93;;;4.25;;
72573;SDS011;60603;52.548;13.420;2023-11-21T07:01:13;8.63;;;3.53;;
72573;SDS011;60603;52.548;13.420;2023-11-21T07:03:40;7.97;;;3.50;;
72573;SDS011;60603;52.548;13.420;2023-11-21T07:06:08;9.07;;;3.55;;
72573;SDS011;60603;52.548;13.420;2023-11-21T07:08:36;7.03;;;3.05;;
72573;SDS011;60603;52.548;13.420;2023-11-21T07:11:03;7.82;;;3.40;;
72573;SDS011;60603;52.548;13.420;2023-11-21T07:13:31;7.03;;;2.97;;
72573;SDS011;60603;52.548;13.420;2023-11-21T07:15:59;7.15;;;3.45;;
72573;SDS011;60603;52.548;13.420;2023-11-21T07:18:26;7.70;;;3.60;;
72573;SDS011;60603;52.548;13.420;2023-11-21T07:20:53;7.78;;;3.53;;
72573;SDS011;60603;52.548;13.420;2023-11-21T07:23:20;10.82;;;3.65;;
72573;SDS011;60603;52.548;13.420;2023-11-21T07:25:49;7.45;;;3.83;;
72573;SDS011;60603;52.548;13.420;2023-11-21T07:28:16;8.10;;;3.63;;
72573;SDS011;60603;52.548;13.420;2023-11-21T07:30:43;7.40;;;3.50;;
72573;SDS011;60603;52.548;13.420;2023-11-21T07:33:10;7.35;;;3.28;;
72573;SDS011;60603;52.548;13.420;2023-11-21T07:35:37;7.70;;;3.83;;
72573;SDS011;60603;52.548;13.420;2023-11-21T07:38:04;8.98;;;3.70;;
72573;SDS011;60603;52.548;13.420;2023-11-21T07:40:30;7.88;;;3.38;;
72573;SDS011;60603;52.548;13.420;2023-11-21T07:42:58;10.65;;;3.42;;
72573;SDS011;60603;52.548;13.420;2023-11-21T07:45:26;7.28;;;3.85;;
72573;SDS011;60603;52.548;13.420;2023-11-21T07:47:54;7.43;;;3.42;;
72573;SDS011;60603;52.548;13.420;2023-11-21T07:50:24;7.70;;;3.65;;
72573;SDS011;60603;52.548;13.420;2023-11-21T07:52:57;8.52;;;3.78;;
72573;SDS011;60603;52.548;13.420;2023-11-21T07:55:24;8.50;;;3.88;;
72573;SDS011;60603;52.548;13.420;2023-11-21T07:57:56;6.97;;;3.35;;
72573;SDS011;60603;52.548;13.420;2023-11-21T08:00:23;8.63;;;3.92;;
72573;SDS011;60603;52.548;13.420;2023-11-21T08:02:54;11.80;;;3.65;;
72573;SDS011;60603;52.548;13.420;2023-11-21T08:05:22;7.07;;;3.40;;
72573;SDS011;60603;52.548;13.420;2023-11-21T08:08:00;8.43;;;3.88;;
72573;SDS011;60603;52.548;13.420;2023-11-21T08:10:27;6.07;;;3.00;;
72573;SDS011;60603;52.548;13.420;2023-11-21T08:12:54;6.95;;;3.20;;
72573;SDS011;60603;52.548;13.420;2023-11-21T08:15:21;7.45;;;3.53;;
72573;SDS011;60603;52.548;13.420;2023-11-21T08:17:49;6.13;;;2.53;;
72573;SDS011;60603;52.548;13.420;2023-11-21T08:20:15;5.68;;;2.72;;
72573;SDS011;60603;52.548;13.420;2023-11-21T08:22:43;6.78;;;2.88;;
72573;SDS011;60603;52.548;13.420;2023-11-21T08:25:10;6.45;;;3.42;;
72573;SDS011;60603;52.548;13.420;2023-11-21T08:27:39;6.05;;;2.47;;
72573;SDS011;60603;52.548;13.420;2023-11-21T08:30:13;9.05;;;3.08;;
72573;SDS011;60603;52.548;13.420;2023-11-21T08:32:41;6.32;;;2.95;;
72573;SDS011;60603;52.548;13.420;2023-11-21T08:35:08;7.30;;;3.50;;
72573;SDS011;60603;52.548;13.420;2023-11-21T08:37:38;8.45;;;2.95;;
72573;SDS011;60603;52.548;13.420;2023-11-21T08:40:05;7.45;;;3.30;;
72573;SDS011;60603;52.548;13.420;2023-11-21T08:42:36;7.13;;;2.95;;
72573;SDS011;60603;52.548;13.420;2023-11-21T08:45:04;6.97;;;2.67;;
72573;SDS011;60603;52.548;13.420;2023-11-21T08:47:32;9.27;;;3.60;;
72573;SDS011;60603;52.548;13.420;2023-11-21T08:49:59;10.20;;;3.70;;
72573;SDS011;60603;52.548;13.420;2023-11-21T08:52:29;8.80;;;3.70;;
72573;SDS011;60603;52.548;13.420;2023-11-21T08:54:56;8.02;;;3.78;;
72573;SDS011;60603;52.548;13.420;2023-11-21T08:57:23;12.23;;;4.38;;
72573;SDS011;60603;52.548;13.420;2023-11-21T08:59:50;10.93;;;4.35;;
72573;SDS011;60603;52.548;13.420;2023-11-21T09:02:22;8.60;;;3.53;;
72573;SDS011;60603;52.548;13.420;2023-11-21T09:04:49;11.38;;;3.65;;
72573;SDS011;60603;52.548;13.420;2023-11-21T09:07:19;8.82;;;3.17;;
72573;SDS011;60603;52.548;13.420;2023-11-21T09:09:49;14.05;;;4.50;;
72573;SDS011;60603;52.548;13.420;2023-11-21T09:12:17;11.88;;;4.13;;
72573;SDS011;60603;52.548;13.420;2023-11-21T09:14:45;12.57;;;4.07;;
72573;SDS011;60603;52.548;13.420;2023-11-21T09:17:13;9.82;;;3.90;;
72573;SDS011;60603;52.548;13.420;2023-11-21T09:19:40;12.38;;;4.03;;
72573;SDS011;60603;52.548;13.420;2023-11-21T09:22:08;11.75;;;4.07;;
72573;SDS011;60603;52.548;13.420;2023-11-21T09:24:34;13.05;;;4.10;;
72573;SDS011;60603;52.548;13.420;2023-11-21T09:27:04;12.63;;;4.07;;
72573;SDS011;60603;52.548;13.420;2023-11-21T09:29:31;15.93;;;5.63;;
72573;SDS011;60603;52.548;13.420;2023-11-21T09:31:58;12.57;;;4.13;;
72573;SDS011;60603;52.548;13.420;2023-11-21T09:34:28;14.07;;;4.18;;
72573;SDS011;60603;52.548;13.420;2023-11-21T09:36:55;12.82;;;4.55;;
72573;SDS011;60603;52.548;13.420;2023-11-21T09:39:22;7.93;;;3.13;;
72573;SDS011;60603;52.548;13.420;2023-11-21T09:41:49;10.30;;;4.30;;
72573;SDS011;60603;52.548;13.420;2023-11-21T09:44:18;10.20;;;3.10;;
72573;SDS011;60603;52.548;13.420;2023-11-21T09:46:47;7.57;;;2.40;;
72573;SDS011;60603;52.548;13.420;2023-11-21T09:49:18;9.80;;;3.13;;
72573;SDS011;60603;52.548;13.420;2023-11-21T09:51:45;9.80;;;2.83;;
72573;SDS011;60603;52.548;13.420;2023-11-21T09:54:13;7.05;;;2.97;;
72573;SDS011;60603;52.548;13.420;2023-11-21T09:56:42;8.48;;;2.20;;
72573;SDS011;60603;52.548;13.420;2023-11-21T09:59:11;8.05;;;2.83;;
72573;SDS011;60603;52.548;13.420;2023-11-21T10:01:40;6.40;;;2.78;;
72573;SDS011;60603;52.548;13.420;2023-11-21T10:04:07;5.78;;;2.47;;
72573;SDS011;60603;52.548;13.420;2023-11-21T10:06:39;12.57;;;2.90;;
72573;SDS011;60603;52.548;13.420;2023-11-21T10:09:09;7.88;;;3.05;;
72573;SDS011;60603;52.548;13.420;2023-11-21T10:11:41;6.60;;;3.22;;
72573;SDS011;60603;52.548;13.420;2023-11-21T10:14:11;6.30;;;2.60;;
72573;SDS011;60603;52.548;13.420;2023-11-21T10:16:40;9.95;;;3.10;;
72573;SDS011;60603;52.548;13.420;2023-11-21T10:19:09;7.30;;;2.80;;
72573;SDS011;60603;52.548;13.420;2023-11-21T10:21:38;6.38;;;3.05;;
72573;SDS011;60603;52.548;13.420;2023-11-21T10:24:05;5.38;;;2.00;;
72573;SDS011;60603;52.548;13.420;2023-11-21T10:26:33;6.22;;;2.45;;
72573;SDS011;60603;52.548;13.420;2023-11-21T10:29:12;5.75;;;2.45;;
72573;SDS011;60603;52.548;13.420;2023-11-21T10:31:43;6.18;;;2.58;;
72573;SDS011;60603;52.548;13.420;2023-11-21T10:34:14;5.03;;;2.15;;
72573;SDS011;60603;52.548;13.420;2023-11-21T10:36:42;6.63;;;2.30;;
72573;SDS011;60603;52.548;13.420;2023-11-21T10:39:09;5.90;;;2.22;;
72573;SDS011;60603;52.548;13.420;2023-11-21T10:41:36;4.65;;;2.15;;
72573;SDS011;60603;52.548;13.420;2023-11-21T10:44:04;7.28;;;2.53;;
72573;SDS011;60603;52.548;13.420;2023-11-21T10:46:34;3.90;;;1.80;;
72573;SDS011;60603;52.548;13.420;2023-11-21T10:49:02;6.50;;;2.30;;
72573;SDS011;60603;52.548;13.420;2023-11-21T10:51:29;5.07;;;2.15;;
72573;SDS011;60603;52.548;13.420;2023-11-21T10:53:55;6.18;;;2.65;;
72573;SDS011;60603;52.548;13.420;2023-11-21T10:56:23;5.55;;;2.28;;
72573;SDS011;60603;52.548;13.420;2023-11-21T10:58:50;7.22;;;2.58;;
72573;SDS011;60603;52.548;13.420;2023-11-21T11:03:48;7.07;;;2.30;;
72573;SDS011;60603;52.548;13.420;2023-11-21T11:06:16;4.72;;;2.53;;
72573;SDS011;60603;52.548;13.420;2023-11-21T11:08:42;4.78;;;2.08;;
72573;SDS011;60603;52.548;13.420;2023-11-21T11:11:12;4.53;;;1.95;;
72573;SDS011;60603;52.548;13.420;2023-11-21T11:13:42;6.18;;;2.20;;
72573;SDS011;60603;52.548;13.420;2023-11-21T11:16:11;5.18;;;2.15;;
72573;SDS011;60603;52.548;13.420;2023-11-21T11:18:38;7.50;;;2.72;;
72573;SDS011;60603;52.548;13.420;2023-11-21T11:21:07;4.38;;;1.73;;
72573;SDS011;60603;52.548;13.420;2023-11-21T11:23:46;5.75;;;2.65;;
72573;SDS011;60603;52.548;13.420;2023-11-21T11:34:59;5.90;;;1.67;;
72573;SDS011;60603;52.548;13.420;2023-11-21T11:37:30;4.65;;;1.88;;
72573;SDS011;60603;52.548;13.420;2023-11-21T11:39:57;5.13;;;2.22;;
72573;SDS011;60603;52.548;13.420;2023-11-21T11:42:26;4.47;;;2.30;;
72573;SDS011;60603;52.548;13.420;2023-11-21T11:44:53;6.72;;;2.35;;
72573;SDS011;60603;52.548;13.420;2023-11-21T11:50:03;7.38;;;2.35;;
72573;SDS011;60603;52.548;13.420;2023-11-21T11:55:10;4.55;;;2.08;;
72573;SDS011;60603;52.548;13.420;2023-11-21T11:57:54;4.00;;;2.10;;
72573;SDS011;60603;52.548;13.420;2023-11-21T12:02:57;4.75;;;2.10;;
72573;SDS011;60603;52.548;13.420;2023-11-21T12:05:25;4.63;;;1.65;;
72573;SDS011;60603;52.548;13.420;2023-11-21T12:08:00;4.63;;;1.98;;
72573;SDS011;60603;52.548;13.420;2023-11-21T12:10:30;4.45;;;2.13;;
72573;SDS011;60603;52.548;13.420;2023-11-21T12:12:58;5.65;;;2.47;;
72573;SDS011;60603;52.548;13.420;2023-11-21T12:15:29;5.25;;;2.20;;
72573;SDS011;60603;52.548;13.420;2023-11-21T12:17:57;6.45;;;2.28;;
72573;SDS011;60603;52.548;13.420;2023-11-21T12:20:28;5.03;;;2.75;;
72573;SDS011;60603;52.548;13.420;2023-11-21T12:22:55;5.63;;;2.55;;
72573;SDS011;60603;52.548;13.420;2023-11-21T12:25:26;4.57;;;2.03;;
72573;SDS011;60603;52.548;13.420;2023-11-21T12:27:59;5.97;;;2.28;;
72573;SDS011;60603;52.548;13.420;2023-11-21T12:30:27;4.47;;;2.22;;
72573;SDS011;60603;52.548;13.420;2023-11-21T12:32:58;5.57;;;2.33;;
72573;SDS011;60603;52.548;13.420;2023-11-21T12:35:32;5.35;;;2.05;;
72573;SDS011;60603;52.548;13.420;2023-11-21T12:38:03;5.88;;;2.30;;
72573;SDS011;60603;52.548;13.420;2023-11-21T12:40:31;5.22;;;2.13;;
72573;SDS011;60603;52.548;13.420;2023-11-21T12:42:59;6.10;;;2.70;;
72573;SDS011;60603;52.548;13.420;2023-11-21T12:45:28;4.97;;;2.40;;
72573;SDS011;60603;52.548;13.420;2023-11-21T12:48:00;4.88;;;2.33;;
72573;SDS011;60603;52.548;13.420;2023-11-21T12:50:30;5.55;;;2.35;;
72573;SDS011;60603;52.548;13.420;2023-11-21T12:53:02;5.88;;;2.50;;
72573;SDS011;60603;52.548;13.420;2023-11-21T12:55:35;6.53;;;2.70;;
72573;SDS011;60603;52.548;13.420;2023-11-21T12:58:07;8.25;;;2.80;;
72573;SDS011;60603;52.548;13.420;2023-11-21T13:03:15;6.82;;;3.03;;
72573;SDS011;60603;52.548;13.420;2023-11-21T13:05:46;4.82;;;2.10;;
72573;SDS011;60603;52.548;13.420;2023-11-21T13:08:18;7.57;;;3.25;;
72573;SDS011;60603;52.548;13.420;2023-11-21T13:10:49;6.30;;;2.63;;
72573;SDS011;60603;52.548;13.420;2023-11-21T13:13:18;4.72;;;2.40;;
72573;SDS011;60603;52.548;13.420;2023-11-21T13:15:53;6.70;;;3.25;;
72573;SDS011;60603;52.548;13.420;2023-11-21T13:18:28;5.63;;;2.65;;
72573;SDS011;60603;52.548;13.420;2023-11-21T13:20:56;6.65;;;2.38;;
72573;SDS011;60603;52.548;13.420;2023-11-21T13:23:28;5.07;;;2.40;;
72573;SDS011;60603;52.548;13.420;2023-11-21T13:25:58;5.45;;;3.15;;
72573;SDS011;60603;52.548;13.420;2023-11-21T13:28:33;6.07;;;3.05;;
72573;SDS011;60603;52.548;13.420;2023-11-21T13:31:01;7.50;;;3.53;;
72573;SDS011;60603;52.548;13.420;2023-11-21T13:33:37;8.18;;;3.75;;
72573;SDS011;60603;52.548;13.420;2023-11-21T13:36:09;7.43;;;3.45;;
72573;SDS011;60603;52.548;13.420;2023-11-21T13:38:37;8.07;;;3.72;;
72573;SDS011;60603;52.548;13.420;2023-11-21T13:41:09;8.43;;;3.30;;
72573;SDS011;60603;52.548;13.420;2023-11-21T13:43:37;6.40;;;2.80;;
72573;SDS011;60603;52.548;13.420;2023-11-21T13:46:04;8.40;;;4.00;;
72573;SDS011;60603;52.548;13.420;2023-11-21T13:48:40;7.63;;;3.72;;
72573;SDS011;60603;52.548;13.420;2023-11-21T13:51:09;8.32;;;4.15;;
72573;SDS011;60603;52.548;13.420;2023-11-21T13:53:47;8.23;;;3.70;;
72573;SDS011;60603;52.548;13.420;2023-11-21T13:56:16;10.27;;;4.63;;
72573;SDS011;60603;52.548;13.420;2023-11-21T13:58:49;9.88;;;3.67;;
72573;SDS011;60603;52.548;13.420;2023-11-21T14:01:21;9.52;;;3.72;;
72573;SDS011;60603;52.548;13.420;2023-11-21T14:03:59;9.82;;;4.60;;
72573;SDS011;60603;52.548;13.420;2023-11-21T14:06:56;10.27;;;4.35;;
72573;SDS011;60603;52.548;13.420;2023-11-21T14:09:23;8.80;;;3.92;;
72573;SDS011;60603;52.548;13.420;2023-11-21T14:11:52;12.52;;;5.40;;
72573;SDS011;60603;52.548;13.420;2023-11-21T14:14:24;11.43;;;5.28;;
72573;SDS011;60603;52.548;13.420;2023-11-21T14:16:52;11.82;;;5.95;;
72573;SDS011;60603;52.548;13.420;2023-11-21T14:19:21;13.90;;;6.60;;
72573;SDS011;60603;52.548;13.420;2023-11-21T14:21:53;12.73;;;5.50;;
72573;SDS011;60603;52.548;13.420;2023-11-21T14:24:21;17.10;;;8.35;;
72573;SDS011;60603;52.548;13.420;2023-11-21T14:26:50;15.77;;;7.43;;
72573;SDS011;60603;52.548;13.420;2023-11-21T14:29:18;12.55;;;6.60;;
72573;SDS011;60603;52.548;13.420;2023-11-21T14:31:49;17.08;;;7.50;;
72573;SDS011;60603;52.548;13.420;2023-11-21T14:34:18;17.15;;;8.10;;
72573;SDS011;60603;52.548;13.420;2023-11-21T14:36:48;17.02;;;8.50;;
72573;SDS011;60603;52.548;13.420;2023-11-21T14:39:16;18.85;;;9.77;;
72573;SDS011;60603;52.548;13.420;2023-11-21T14:41:54;18.60;;;8.75;;
72573;SDS011;60603;52.548;13.420;2023-11-21T14:44:25;24.50;;;9.80;;
72573;SDS011;60603;52.548;13.420;2023-11-21T14:46:55;21.15;;;10.20;;
72573;SDS011;60603;52.548;13.420;2023-11-21T14:49:25;22.67;;;10.95;;
72573;SDS011;60603;52.548;13.420;2023-11-21T14:51:54;16.90;;;9.23;;
72573;SDS011;60603;52.548;13.420;2023-11-21T14:54:30;21.02;;;9.27;;
72573;SDS011;60603;52.548;13.420;2023-11-21T14:57:11;17.88;;;9.05;;
72573;SDS011;60603;52.548;13.420;2023-11-21T14:59:48;19.10;;;8.93;;
72573;SDS011;60603;52.548;13.420;2023-11-21T15:02:19;19.65;;;8.82;;
72573;SDS011;60603;52.548;13.420;2023-11-21T15:05:10;16.50;;;8.63;;
72573;SDS011;60603;52.548;13.420;2023-11-21T15:07:43;14.55;;;7.47;;
72573;SDS011;60603;52.548;13.420;2023-11-21T15:10:11;16.17;;;7.80;;
72573;SDS011;60603;52.548;13.420;2023-11-21T15:12:42;13.77;;;7.00;;
72573;SDS011;60603;52.548;13.420;2023-11-21T15:15:11;14.32;;;6.95;;
72573;SDS011;60603;52.548;13.420;2023-11-21T15:17:40;14.63;;;5.85;;
72573;SDS011;60603;52.548;13.420;2023-11-21T15:20:09;17.23;;;8.10;;
72573;SDS011;60603;52.548;13.420;2023-11-21T15:22:39;13.30;;;6.40;;
72573;SDS011;60603;52.548;13.420;2023-11-21T15:25:07;15.13;;;6.80;;